createdAt,value
2019-04-01T00:00:38.911Z,1.25
2019-04-01T00:01:49.244Z,1.47
2019-04-01T00:02:54.367Z,1.92
2019-04-01T00:03:59.766Z,1.75
2019-04-01T00:05:05.172Z,2.00
2019-04-01T00:06:10.486Z,1.62
2019-04-01T00:07:15.653Z,1.87
2019-04-01T00:08:20.924Z,1.87
2019-04-01T00:09:25.997Z,1.87
2019-04-01T00:10:33.600Z,2.12
2019-04-01T00:11:38.672Z,1.92
2019-04-01T00:12:43.788Z,1.72
2019-04-01T00:13:48.963Z,2.15
2019-04-01T00:14:54.148Z,1.42
2019-04-01T00:15:59.346Z,1.60
2019-04-01T00:17:04.506Z,1.32
2019-04-01T00:18:09.839Z,1.55
2019-04-01T00:19:15.016Z,1.55
2019-04-01T00:20:20.319Z,1.82
2019-04-01T00:21:28.522Z,1.40
2019-04-01T00:22:33.717Z,2.80
2019-04-01T00:23:38.867Z,1.45
2019-04-01T00:24:44.209Z,2.27
2019-04-01T00:25:49.355Z,1.80
2019-04-01T00:26:54.599Z,1.60
2019-04-01T00:27:59.743Z,1.60
2019-04-01T00:29:05.061Z,1.60
2019-04-01T00:30:10.341Z,1.35
2019-04-01T00:31:15.576Z,1.30
2019-04-01T00:32:20.878Z,1.85
2019-04-01T00:33:26.045Z,2.00
2019-04-01T00:34:31.273Z,1.77
2019-04-01T00:35:36.375Z,1.80
2019-04-01T00:36:41.441Z,1.32
2019-04-01T00:37:46.581Z,1.52
2019-04-01T00:38:51.738Z,2.62
2019-04-01T00:39:56.975Z,1.35
2019-04-01T00:41:02.042Z,1.60
2019-04-01T00:42:17.059Z,2.15
2019-04-01T00:43:26.657Z,1.65
2019-04-01T00:44:31.752Z,1.65
2019-04-01T00:45:38.375Z,1.62
2019-04-01T00:46:43.465Z,1.65
2019-04-01T00:47:48.546Z,2.05
2019-04-01T00:48:56.422Z,2.17
2019-04-01T00:50:01.555Z,2.10
2019-04-01T00:51:07.761Z,2.27
2019-04-01T00:52:13.020Z,2.17
2019-04-01T00:53:18.313Z,1.47
2019-04-01T00:54:23.449Z,2.15
2019-04-01T00:55:28.666Z,1.95
2019-04-01T00:56:33.758Z,1.50
2019-04-01T00:57:38.943Z,1.90
2019-04-01T00:58:43.975Z,2.42
2019-04-01T00:59:49.120Z,1.45
2019-04-01T01:00:54.230Z,1.85
2019-04-01T01:01:59.419Z,1.62
2019-04-01T01:03:04.503Z,1.50
2019-04-01T01:04:09.674Z,1.70
2019-04-01T01:05:15.091Z,1.62
2019-04-01T01:06:20.253Z,1.87
2019-04-01T01:07:25.353Z,1.45
2019-04-01T01:08:31.652Z,1.70
2019-04-01T01:09:36.732Z,1.70
2019-04-01T01:10:41.789Z,1.90
2019-04-01T01:11:47.894Z,1.77
2019-04-01T01:12:53.075Z,1.72
2019-04-01T01:13:58.203Z,2.10
2019-04-01T01:15:03.344Z,2.25
2019-04-01T01:16:08.674Z,1.52
2019-04-01T01:17:13.895Z,1.70
2019-04-01T01:18:19.026Z,2.37
2019-04-01T01:19:25.232Z,1.50
2019-04-01T01:20:30.405Z,1.77
2019-04-01T01:21:36.716Z,2.42
2019-04-01T01:22:41.747Z,2.17
2019-04-01T01:23:46.765Z,1.67
2019-04-01T01:24:51.834Z,1.60
2019-04-01T01:25:56.963Z,2.20
2019-04-01T01:27:02.046Z,1.70
2019-04-01T01:28:07.095Z,1.70
2019-04-01T01:29:12.202Z,1.60
2019-04-01T01:30:17.471Z,1.50
2019-04-01T01:31:22.596Z,1.45
2019-04-01T01:32:27.702Z,1.75
2019-04-01T01:33:32.837Z,1.40
2019-04-01T01:34:37.995Z,1.65
2019-04-01T01:35:43.030Z,1.55
2019-04-01T01:36:48.234Z,1.82
2019-04-01T01:37:53.352Z,2.22
2019-04-01T01:38:58.484Z,2.55
2019-04-01T01:40:03.812Z,1.30
2019-04-01T01:41:09.078Z,1.70
2019-04-01T01:42:14.170Z,2.35
2019-04-01T01:43:19.324Z,1.35
2019-04-01T01:44:24.476Z,1.67
2019-04-01T01:45:29.689Z,1.70
2019-04-01T01:46:34.978Z,1.75
2019-04-01T01:47:40.107Z,1.32
2019-04-01T01:48:45.222Z,1.62
2019-04-01T01:49:51.427Z,2.02
2019-04-01T01:50:56.891Z,1.80
2019-04-01T01:52:02.016Z,2.42
2019-04-01T01:53:07.199Z,1.80
2019-04-01T01:54:12.382Z,1.75
2019-04-01T01:55:17.577Z,1.70
2019-04-01T01:56:22.809Z,1.75
2019-04-01T01:57:27.960Z,2.12
2019-04-01T01:58:32.969Z,2.12
2019-04-01T01:59:38.115Z,1.50
2019-04-01T02:00:43.244Z,2.15
2019-04-01T02:01:50.003Z,1.80
2019-04-01T02:02:55.231Z,2.42
2019-04-01T02:04:00.470Z,2.67
2019-04-01T02:05:06.048Z,2.35
2019-04-01T02:06:11.174Z,1.70
2019-04-01T02:07:17.273Z,1.70
2019-04-01T02:08:22.364Z,2.65
2019-04-01T02:09:27.451Z,1.60
2019-04-01T02:10:32.629Z,1.67
2019-04-01T02:11:39.570Z,2.10
2019-04-01T02:12:44.659Z,1.80
2019-04-01T02:13:49.857Z,1.90
2019-04-01T02:14:55.052Z,1.70
2019-04-01T02:16:00.381Z,1.82
2019-04-01T02:17:05.481Z,1.72
2019-04-01T02:18:10.625Z,2.27
2019-04-01T02:19:15.705Z,1.82
2019-04-01T02:20:20.994Z,1.40
2019-04-01T02:21:26.141Z,2.02
2019-04-01T02:22:31.163Z,1.90
2019-04-01T02:23:36.309Z,2.25
2019-04-01T02:24:41.466Z,1.80
2019-04-01T02:25:46.509Z,2.00
2019-04-01T02:26:51.682Z,1.72
2019-04-01T02:27:56.792Z,1.82
2019-04-01T02:29:01.886Z,1.90
2019-04-01T02:30:07.190Z,1.50
2019-04-01T02:31:12.318Z,2.08
2019-04-01T02:32:17.484Z,1.20
2019-04-01T02:33:22.668Z,1.82
2019-04-01T02:34:27.902Z,1.67
2019-04-01T02:35:32.968Z,1.90
2019-04-01T02:36:38.333Z,1.90
2019-04-01T02:37:43.549Z,2.10
2019-04-01T02:38:48.689Z,1.50
2019-04-01T02:39:53.846Z,1.90
2019-04-01T02:40:59.126Z,1.70
2019-04-01T02:42:04.300Z,1.55
2019-04-01T02:43:09.452Z,1.65
2019-04-01T02:44:14.634Z,2.15
2019-04-01T02:45:19.846Z,1.55
2019-04-01T02:46:25.109Z,1.70
2019-04-01T02:47:30.324Z,1.77
2019-04-01T02:48:35.483Z,2.25
2019-04-01T02:49:40.666Z,1.72
2019-04-01T02:50:45.839Z,1.80
2019-04-01T02:51:50.980Z,2.30
2019-04-01T02:52:56.077Z,1.75
2019-04-01T02:54:01.254Z,2.25
2019-04-01T02:55:07.287Z,1.47
2019-04-01T02:56:12.643Z,2.33
2019-04-01T02:57:17.900Z,2.00
2019-04-01T02:58:22.986Z,1.98
2019-04-01T02:59:29.259Z,2.05
2019-04-01T03:00:34.283Z,1.77
2019-04-01T03:01:39.365Z,1.70
2019-04-01T03:02:44.506Z,1.40
2019-04-01T03:03:49.691Z,1.55
2019-04-01T03:04:55.897Z,1.90
2019-04-01T03:06:01.099Z,2.47
2019-04-01T03:07:06.239Z,1.60
2019-04-01T03:08:11.433Z,1.67
2019-04-01T03:09:16.528Z,2.30
2019-04-01T03:10:21.750Z,2.12
2019-04-01T03:11:26.963Z,2.25
2019-04-01T03:12:31.992Z,1.67
2019-04-01T03:13:37.136Z,1.80
2019-04-01T03:14:42.189Z,2.40
2019-04-01T03:15:47.416Z,1.70
2019-04-01T03:16:52.545Z,2.02
2019-04-01T03:17:57.748Z,1.62
2019-04-01T03:19:02.823Z,1.95
2019-04-01T03:20:08.074Z,1.80
2019-04-01T03:21:13.233Z,1.62
2019-04-01T03:22:18.339Z,2.00
2019-04-01T03:23:23.497Z,1.70
2019-04-01T03:24:28.890Z,1.70
2019-04-01T03:25:34.157Z,1.80
2019-04-01T03:26:39.283Z,2.12
2019-04-01T03:27:44.515Z,1.55
2019-04-01T03:28:49.636Z,1.60
2019-04-01T03:29:54.780Z,2.05
2019-04-01T03:30:59.914Z,2.55
2019-04-01T03:32:05.168Z,2.10
2019-04-01T03:33:10.349Z,1.82
2019-04-01T03:34:15.440Z,1.77
2019-04-01T03:35:20.575Z,1.70
2019-04-01T03:36:25.850Z,2.65
2019-04-01T03:37:31.095Z,2.00
2019-04-01T03:38:36.220Z,2.12
2019-04-01T03:39:41.418Z,2.05
2019-04-01T03:40:46.586Z,2.02
2019-04-01T03:41:51.715Z,2.10
2019-04-01T03:42:56.868Z,2.08
2019-04-01T03:44:02.006Z,1.92
2019-04-01T03:45:07.341Z,2.70
2019-04-01T03:46:12.529Z,2.42
2019-04-01T03:47:17.679Z,2.47
2019-04-01T03:48:22.822Z,2.47
2019-04-01T03:49:27.957Z,2.37
2019-04-01T03:50:33.224Z,2.25
2019-04-01T03:51:38.508Z,2.02
2019-04-01T03:52:43.670Z,2.27
2019-04-01T03:53:48.955Z,2.20
2019-04-01T03:54:54.110Z,1.87
2019-04-01T03:55:59.155Z,2.00
2019-04-01T03:57:04.321Z,2.47
2019-04-01T03:58:09.501Z,2.20
2019-04-01T03:59:14.724Z,2.22
2019-04-01T04:00:19.934Z,2.72
2019-04-01T04:01:29.824Z,2.20
2019-04-01T04:02:31.864Z,1.75
2019-04-01T04:03:37.003Z,2.20
2019-04-01T04:04:42.170Z,1.87
2019-04-01T04:05:47.425Z,1.80
2019-04-01T04:06:52.712Z,2.35
2019-04-01T04:07:57.777Z,2.12
2019-04-01T04:09:03.731Z,2.42
2019-04-01T04:10:09.322Z,1.82
2019-04-01T04:11:14.408Z,2.12
2019-04-01T04:12:20.694Z,2.15
2019-04-01T04:13:25.868Z,2.10
2019-04-01T04:14:31.013Z,2.45
2019-04-01T04:15:36.271Z,2.10
2019-04-01T04:16:41.495Z,1.90
2019-04-01T04:17:46.627Z,2.02
2019-04-01T04:18:51.887Z,2.45
2019-04-01T04:19:57.010Z,2.17
2019-04-01T04:21:02.176Z,2.35
2019-04-01T04:22:07.382Z,1.87
2019-04-01T04:23:12.517Z,1.72
2019-04-01T04:24:17.626Z,2.08
2019-04-01T04:25:22.870Z,1.72
2019-04-01T04:26:28.119Z,2.12
2019-04-01T04:27:33.418Z,2.05
2019-04-01T04:28:38.568Z,2.08
2019-04-01T04:29:43.684Z,2.22
2019-04-01T04:30:48.854Z,1.95
2019-04-01T04:31:54.140Z,2.33
2019-04-01T04:32:59.282Z,2.10
2019-04-01T04:34:04.323Z,3.33
2019-04-01T04:35:09.550Z,1.60
2019-04-01T04:36:14.727Z,2.02
2019-04-01T04:37:19.917Z,3.10
2019-04-01T04:38:25.143Z,1.80
2019-04-01T04:39:30.380Z,1.87
2019-04-01T04:40:35.502Z,1.98
2019-04-01T04:41:40.627Z,2.22
2019-04-01T04:42:45.869Z,1.95
2019-04-01T04:43:51.148Z,2.17
2019-04-01T04:44:56.333Z,1.70
2019-04-01T04:46:01.638Z,2.08
2019-04-01T04:47:06.846Z,2.05
2019-04-01T04:48:12.054Z,1.67
2019-04-01T04:49:17.332Z,1.77
2019-04-01T04:50:22.549Z,2.30
2019-04-01T04:51:27.825Z,2.08
2019-04-01T04:52:32.941Z,2.08
2019-04-01T04:53:38.005Z,2.10
2019-04-01T04:54:43.070Z,2.40
2019-04-01T04:55:48.258Z,2.30
2019-04-01T04:56:53.507Z,2.35
2019-04-01T04:57:58.796Z,1.90
2019-04-01T04:59:03.899Z,1.90
2019-04-01T05:00:09.523Z,1.82
2019-04-01T05:01:14.601Z,2.45
2019-04-01T05:02:19.905Z,2.55
2019-04-01T05:03:25.029Z,2.27
2019-04-01T05:04:30.331Z,2.62
2019-04-01T05:05:35.449Z,2.42
2019-04-01T05:06:40.609Z,2.42
2019-04-01T05:07:45.748Z,2.42
2019-04-01T05:08:50.871Z,2.02
2019-04-01T05:09:56.189Z,2.00
2019-04-01T05:11:01.413Z,1.80
2019-04-01T05:12:06.533Z,2.22
2019-04-01T05:13:11.728Z,2.15
2019-04-01T05:14:16.789Z,2.35
2019-04-01T05:15:22.036Z,2.65
2019-04-01T05:16:27.177Z,2.17
2019-04-01T05:17:32.277Z,1.60
2019-04-01T05:18:38.160Z,2.42
2019-04-01T05:19:43.290Z,2.37
2019-04-01T05:20:48.736Z,2.42
2019-04-01T05:21:54.561Z,2.45
2019-04-01T05:23:00.024Z,2.45
2019-04-01T05:24:05.225Z,2.67
2019-04-01T05:25:10.525Z,1.95
2019-04-01T05:26:15.979Z,2.08
2019-04-01T05:27:24.636Z,2.60
2019-04-01T05:28:30.848Z,2.87
2019-04-01T05:29:37.916Z,2.25
2019-04-01T05:30:45.637Z,2.10
2019-04-01T05:31:52.742Z,2.22
2019-04-01T05:33:00.814Z,2.22
2019-04-01T05:34:06.783Z,2.35
2019-04-01T05:35:11.907Z,2.22
2019-04-01T05:36:17.982Z,2.25
2019-04-01T05:37:23.213Z,2.33
2019-04-01T05:38:28.371Z,2.98
2019-04-01T05:39:35.415Z,2.10
2019-04-01T05:40:40.649Z,2.35
2019-04-01T05:41:45.888Z,2.10
2019-04-01T05:42:50.910Z,2.60
2019-04-01T05:43:56.006Z,2.22
2019-04-01T05:45:01.307Z,2.67
2019-04-01T05:46:06.427Z,1.87
2019-04-01T05:47:11.649Z,2.60
2019-04-01T05:48:17.813Z,2.62
2019-04-01T05:49:22.959Z,1.90
2019-04-01T05:50:28.344Z,2.83
2019-04-01T05:51:33.603Z,2.90
2019-04-01T05:52:38.794Z,2.70
2019-04-01T05:53:44.059Z,2.65
2019-04-01T05:54:49.288Z,2.40
2019-04-01T05:55:54.440Z,1.95
2019-04-01T05:56:59.843Z,2.20
2019-04-01T05:58:04.975Z,2.35
2019-04-01T05:59:09.999Z,2.60
2019-04-01T06:00:21.288Z,2.30
2019-04-01T06:01:30.491Z,1.90
2019-04-01T06:02:35.619Z,2.27
2019-04-01T06:03:40.711Z,2.22
2019-04-01T06:04:46.177Z,2.67
2019-04-01T06:05:51.241Z,2.10
2019-04-01T06:06:56.368Z,2.00
2019-04-01T06:08:02.064Z,2.67
2019-04-01T06:09:09.108Z,2.40
2019-04-01T06:10:14.381Z,2.20
2019-04-01T06:11:19.527Z,2.62
2019-04-01T06:12:24.661Z,2.55
2019-04-01T06:13:29.786Z,2.70
2019-04-01T06:14:35.008Z,2.08
2019-04-01T06:15:40.127Z,2.98
2019-04-01T06:16:45.307Z,2.17
2019-04-01T06:17:50.327Z,2.10
2019-04-01T06:18:55.430Z,2.45
2019-04-01T06:20:00.761Z,2.40
2019-04-01T06:21:06.224Z,2.25
2019-04-01T06:22:11.544Z,2.10
2019-04-01T06:23:16.889Z,1.77
2019-04-01T06:24:24.743Z,2.13
2019-04-01T06:25:29.324Z,2.05
2019-04-01T06:26:34.521Z,1.98
2019-04-01T06:27:40.245Z,1.63
2019-04-01T06:28:45.409Z,1.90
2019-04-01T06:29:50.638Z,2.03
2019-04-01T06:30:55.799Z,2.43
2019-04-01T06:32:01.014Z,2.37
2019-04-01T06:33:06.315Z,2.57
2019-04-01T06:34:11.912Z,2.47
2019-04-01T06:35:17.143Z,1.77
2019-04-01T06:36:22.481Z,1.92
2019-04-01T06:37:28.682Z,2.67
2019-04-01T06:38:33.941Z,2.20
2019-04-01T06:39:39.098Z,1.72
2019-04-01T06:40:44.347Z,3.03
2019-04-01T06:41:49.800Z,2.40
2019-04-01T06:42:55.909Z,2.17
2019-04-01T06:44:01.153Z,2.00
2019-04-01T06:45:07.760Z,2.23
2019-04-01T06:46:12.930Z,2.20
2019-04-01T06:47:17.991Z,2.30
2019-04-01T06:48:23.179Z,1.97
2019-04-01T06:49:28.365Z,2.50
2019-04-01T06:50:33.583Z,1.93
2019-04-01T06:51:38.691Z,1.83
2019-04-01T06:52:45.120Z,1.97
2019-04-01T06:53:50.329Z,2.30
2019-04-01T06:54:55.406Z,1.80
2019-04-01T06:56:00.551Z,2.50
2019-04-01T06:57:05.702Z,2.30
2019-04-01T06:58:12.076Z,2.57
2019-04-01T06:59:17.236Z,2.10
2019-04-01T07:00:22.314Z,2.23
2019-04-01T07:01:27.360Z,2.57
2019-04-01T07:02:32.524Z,1.97
2019-04-01T07:03:37.686Z,2.10
2019-04-01T07:04:42.930Z,2.27
2019-04-01T07:05:48.190Z,2.43
2019-04-01T07:06:53.619Z,2.40
2019-04-01T07:07:58.951Z,1.90
2019-04-01T07:09:06.038Z,2.20
2019-04-01T07:10:11.273Z,2.07
2019-04-01T07:11:16.518Z,2.00
2019-04-01T07:12:21.694Z,2.17
2019-04-01T07:13:26.821Z,2.27
2019-04-01T07:14:31.944Z,2.13
2019-04-01T07:15:37.526Z,2.07
2019-04-01T07:16:42.648Z,2.13
2019-04-01T07:17:47.839Z,2.60
2019-04-01T07:18:52.968Z,2.47
2019-04-01T07:19:58.231Z,2.33
2019-04-01T07:21:03.315Z,2.00
2019-04-01T07:22:08.391Z,2.47
2019-04-01T07:23:13.649Z,2.10
2019-04-01T07:24:19.293Z,2.03
2019-04-01T07:25:25.487Z,2.27
2019-04-01T07:26:30.623Z,2.37
2019-04-01T07:27:35.861Z,2.40
2019-04-01T07:28:41.280Z,2.50
2019-04-01T07:29:46.394Z,2.17
2019-04-01T07:30:51.511Z,2.30
2019-04-01T07:31:57.076Z,2.07
2019-04-01T07:33:02.270Z,2.23
2019-04-01T07:34:07.411Z,2.37
2019-04-01T07:35:12.537Z,1.90
2019-04-01T07:36:17.647Z,2.27
2019-04-01T07:37:22.800Z,1.90
2019-04-01T07:38:28.065Z,2.47
2019-04-01T07:39:33.233Z,1.87
2019-04-01T07:40:38.292Z,1.77
2019-04-01T07:41:43.411Z,2.30
2019-04-01T07:42:48.645Z,2.43
2019-04-01T07:43:53.777Z,2.00
2019-04-01T07:44:58.939Z,2.80
2019-04-01T07:46:08.287Z,1.90
2019-04-01T07:47:13.698Z,2.13
2019-04-01T07:48:18.922Z,2.33
2019-04-01T07:49:26.845Z,2.00
2019-04-01T07:50:31.988Z,2.10
2019-04-01T07:51:38.590Z,2.40
2019-04-01T07:52:43.839Z,2.10
2019-04-01T07:53:49.020Z,2.63
2019-04-01T07:54:54.600Z,1.93
2019-04-01T07:56:02.537Z,2.50
2019-04-01T07:57:06.552Z,2.17
2019-04-01T07:58:11.716Z,2.10
2019-04-01T07:59:17.229Z,1.93
2019-04-01T08:00:22.445Z,2.30
2019-04-01T08:01:27.585Z,2.57
2019-04-01T08:02:32.632Z,2.60
2019-04-01T08:03:41.659Z,2.60
2019-04-01T08:04:45.510Z,2.20
2019-04-01T08:05:50.622Z,2.27
2019-04-01T08:06:55.963Z,2.40
2019-04-01T08:08:01.403Z,2.03
2019-04-01T08:09:07.517Z,2.53
2019-04-01T08:10:13.088Z,2.70
2019-04-01T08:11:18.267Z,3.20
2019-04-01T08:12:23.692Z,2.20
2019-04-01T08:13:29.034Z,3.37
2019-04-01T08:14:34.277Z,3.33
2019-04-01T08:15:39.329Z,2.73
2019-04-01T08:16:44.584Z,2.87
2019-04-01T08:17:49.776Z,2.60
2019-04-01T08:18:54.992Z,2.83
2019-04-01T08:20:00.540Z,2.57
2019-04-01T08:21:05.652Z,2.87
2019-04-01T08:22:10.813Z,2.37
2019-04-01T08:23:16.029Z,2.43
2019-04-01T08:24:21.395Z,3.00
2019-04-01T08:25:26.745Z,3.03
2019-04-01T08:26:31.817Z,2.43
2019-04-01T08:27:37.510Z,2.77
2019-04-01T08:28:43.156Z,3.00
2019-04-01T08:29:48.278Z,2.83
2019-04-01T08:30:53.442Z,2.47
2019-04-01T08:31:58.583Z,2.70
2019-04-01T08:33:04.081Z,3.03
2019-04-01T08:34:09.218Z,3.17
2019-04-01T08:35:14.570Z,2.63
2019-04-01T08:36:20.068Z,2.90
2019-04-01T08:37:25.381Z,2.67
2019-04-01T08:38:30.557Z,2.70
2019-04-01T08:39:35.639Z,3.07
2019-04-01T08:40:40.776Z,2.77
2019-04-01T08:41:45.834Z,2.57
2019-04-01T08:42:50.990Z,2.70
2019-04-01T08:43:56.231Z,2.57
2019-04-01T08:45:01.349Z,2.70
2019-04-01T08:46:06.618Z,2.90
2019-04-01T08:47:11.732Z,2.33
2019-04-01T08:48:16.884Z,2.87
2019-04-01T08:49:22.128Z,3.13
2019-04-01T08:50:27.160Z,2.63
2019-04-01T08:51:32.388Z,2.70
2019-04-01T08:52:37.642Z,2.90
2019-04-01T08:53:42.807Z,2.60
2019-04-01T08:54:47.846Z,2.60
2019-04-01T08:56:00.635Z,2.20
2019-04-01T08:57:00.104Z,2.40
2019-04-01T08:58:05.181Z,3.23
2019-04-01T08:59:10.355Z,2.43
2019-04-01T09:00:15.777Z,2.40
2019-04-01T09:01:34.625Z,2.27
2019-04-01T09:02:27.755Z,2.77
2019-04-01T09:03:32.856Z,2.63
2019-04-01T09:04:38.009Z,2.30
2019-04-01T09:05:43.238Z,3.20
2019-04-01T09:06:48.325Z,2.20
2019-04-01T09:07:53.985Z,2.60
2019-04-01T09:09:01.178Z,2.40
2019-04-01T09:10:08.371Z,2.60
2019-04-01T09:11:13.494Z,2.63
2019-04-01T09:12:18.666Z,2.57
2019-04-01T09:13:23.836Z,2.40
2019-04-01T09:14:29.783Z,2.50
2019-04-01T09:15:34.855Z,2.57
2019-04-01T09:16:41.417Z,2.40
2019-04-01T09:17:46.636Z,2.37
2019-04-01T09:18:51.829Z,2.77
2019-04-01T09:19:57.148Z,2.03
2019-04-01T09:21:02.306Z,2.93
2019-04-01T09:22:07.613Z,2.43
2019-04-01T09:23:12.829Z,2.37
2019-04-01T09:24:18.019Z,2.40
2019-04-01T09:25:23.130Z,2.73
2019-04-01T09:26:28.182Z,2.63
2019-04-01T09:27:33.250Z,2.77
2019-04-01T09:28:38.339Z,2.60
2019-04-01T09:29:43.444Z,2.37
2019-04-01T09:30:48.598Z,2.97
2019-04-01T09:31:53.754Z,2.20
2019-04-01T09:32:58.897Z,2.43
2019-04-01T09:34:04.113Z,2.20
2019-04-01T09:35:09.529Z,2.43
2019-04-01T09:36:14.709Z,2.53
2019-04-01T09:37:19.840Z,2.37
2019-04-01T09:38:25.000Z,2.50
2019-04-01T09:39:30.218Z,2.60
2019-04-01T09:40:35.330Z,2.73
2019-04-01T09:41:40.393Z,2.00
2019-04-01T09:42:45.547Z,2.63
2019-04-01T09:43:50.753Z,2.53
2019-04-01T09:44:55.839Z,2.57
2019-04-01T09:46:01.004Z,2.67
2019-04-01T09:47:06.243Z,2.30
2019-04-01T09:48:11.428Z,2.30
2019-04-01T09:49:16.821Z,2.37
2019-04-01T09:50:24.076Z,2.70
2019-04-01T09:51:29.153Z,2.87
2019-04-01T09:52:34.277Z,2.60
2019-04-01T09:53:39.464Z,2.83
2019-04-01T09:54:44.676Z,2.03
2019-04-01T09:55:49.724Z,2.77
2019-04-01T09:56:54.853Z,2.17
2019-04-01T09:57:59.947Z,2.83
2019-04-01T09:59:05.060Z,2.40
2019-04-01T10:00:11.688Z,2.73
2019-04-01T10:01:16.898Z,2.50
2019-04-01T10:02:31.676Z,2.43
2019-04-01T10:03:28.795Z,2.43
2019-04-01T10:04:33.881Z,2.20
2019-04-01T10:05:39.141Z,2.47
2019-04-01T10:06:44.313Z,2.53
2019-04-01T10:07:51.218Z,2.90
2019-04-01T10:08:56.440Z,2.70
2019-04-01T10:10:01.653Z,3.10
2019-04-01T10:11:08.080Z,3.00
2019-04-01T10:12:13.186Z,3.07
2019-04-01T10:13:19.491Z,2.63
2019-04-01T10:14:24.549Z,3.23
2019-04-01T10:15:29.666Z,2.33
2019-04-01T10:16:34.792Z,2.53
2019-04-01T10:17:40.930Z,3.47
2019-04-01T10:18:46.066Z,2.87
2019-04-01T10:19:51.229Z,2.70
2019-04-01T10:20:56.380Z,2.40
2019-04-01T10:22:01.584Z,2.53
2019-04-01T10:23:06.927Z,2.67
2019-04-01T10:24:12.013Z,3.23
2019-04-01T10:25:17.211Z,3.17
2019-04-01T10:26:22.320Z,2.77
2019-04-01T10:27:27.451Z,2.50
2019-04-01T10:28:32.612Z,2.87
2019-04-01T10:29:38.731Z,2.67
2019-04-01T10:30:43.973Z,3.00
2019-04-01T10:31:49.122Z,3.00
2019-04-01T10:32:54.293Z,2.90
2019-04-01T10:33:59.462Z,2.57
2019-04-01T10:35:05.151Z,3.20
2019-04-01T10:36:10.216Z,2.60
2019-04-01T10:37:15.382Z,2.57
2019-04-01T10:38:20.485Z,3.13
2019-04-01T10:39:25.645Z,3.40
2019-04-01T10:40:30.902Z,3.13
2019-04-01T10:41:35.993Z,2.77
2019-04-01T10:42:41.024Z,3.33
2019-04-01T10:43:46.319Z,2.80
2019-04-01T10:44:51.562Z,2.93
2019-04-01T10:45:56.811Z,2.70
2019-04-01T10:47:02.138Z,2.70
2019-04-01T10:48:07.608Z,2.90
2019-04-01T10:49:13.885Z,3.03
2019-04-01T10:50:19.162Z,2.83
2019-04-01T10:51:24.410Z,2.90
2019-04-01T10:52:29.603Z,2.60
2019-04-01T10:53:37.847Z,3.37
2019-04-01T10:55:39.217Z,2.93
2019-04-01T10:57:35.559Z,2.70
2019-04-01T12:28:39.458Z,3.50
2019-04-01T12:29:48.014Z,3.47
2019-04-01T12:30:52.170Z,3.13
2019-04-01T12:31:59.628Z,3.40
2019-04-01T12:33:04.481Z,2.97
2019-04-01T12:34:09.577Z,2.93
2019-04-01T12:35:14.847Z,4.10
2019-04-01T12:36:20.031Z,3.30
2019-04-01T12:37:25.098Z,3.73
2019-04-01T12:38:30.405Z,3.30
2019-04-01T12:39:35.521Z,3.80
2019-04-01T12:40:40.653Z,3.30
2019-04-01T12:41:47.434Z,3.57
2019-04-01T12:42:53.025Z,3.47
2019-04-01T12:43:58.160Z,3.23
2019-04-01T12:45:03.442Z,3.57
2019-04-01T12:46:09.586Z,3.97
2019-04-01T12:47:15.196Z,2.67
2019-04-01T12:48:20.273Z,3.10
2019-04-01T12:49:25.329Z,3.43
2019-04-01T12:50:30.533Z,3.07
2019-04-01T12:51:35.685Z,3.33
2019-04-01T12:52:40.716Z,3.83
2019-04-01T12:53:46.940Z,3.80
2019-04-01T12:54:52.122Z,3.37
2019-04-01T12:55:57.349Z,3.77
2019-04-01T12:57:02.581Z,3.50
2019-04-01T12:58:07.615Z,3.23
2019-04-01T12:59:12.759Z,3.63
2019-04-01T13:00:18.173Z,3.90
2019-04-01T13:01:23.362Z,3.93
2019-04-01T13:02:28.494Z,4.30
2019-04-01T13:03:34.796Z,3.67
2019-04-01T13:04:39.880Z,3.60
2019-04-01T13:05:45.033Z,3.53
2019-04-01T13:06:51.548Z,4.53
2019-04-01T13:07:57.960Z,4.03
2019-04-01T13:09:03.067Z,3.93
2019-04-01T13:10:09.957Z,3.40
2019-04-01T13:11:15.218Z,4.43
2019-04-01T13:12:20.301Z,3.60
2019-04-01T13:13:25.567Z,4.00
2019-04-01T13:14:30.838Z,4.10
2019-04-01T13:15:37.176Z,4.27
2019-04-01T13:16:42.405Z,4.53
2019-04-01T13:17:49.920Z,4.07
2019-04-01T13:18:55.081Z,4.47
2019-04-01T13:20:00.233Z,4.30
2019-04-01T13:21:06.305Z,3.93
2019-04-01T13:22:11.480Z,4.03
2019-04-01T13:23:16.850Z,4.40
2019-04-01T13:24:22.209Z,4.03
2019-04-01T13:25:27.487Z,4.20
2019-04-01T13:26:32.673Z,4.10
2019-04-01T13:27:37.758Z,4.73
2019-04-01T13:28:42.810Z,3.93
2019-04-01T13:29:47.933Z,3.70
2019-04-01T13:30:53.162Z,4.10
2019-04-01T13:32:00.543Z,4.43
2019-04-01T13:33:05.210Z,4.43
2019-04-01T13:34:10.359Z,3.90
2019-04-01T13:35:15.405Z,4.10
2019-04-01T13:36:21.680Z,4.53
2019-04-01T13:37:26.749Z,4.20
2019-04-01T13:38:31.921Z,3.93
2019-04-01T13:39:37.624Z,3.60
2019-04-01T13:40:44.257Z,4.10
2019-04-01T13:41:49.594Z,4.80
2019-04-01T13:42:54.754Z,4.40
2019-04-01T13:43:59.973Z,4.30
2019-04-01T13:45:05.439Z,4.67
2019-04-01T13:46:10.724Z,4.37
2019-04-01T13:47:15.798Z,3.93
2019-04-01T13:48:21.146Z,4.53
2019-04-01T13:49:26.930Z,4.53
2019-04-01T13:50:32.643Z,4.13
2019-04-01T13:51:39.103Z,4.37
2019-04-01T13:52:44.422Z,4.20
2019-04-01T13:53:49.593Z,4.30
2019-04-01T13:54:54.640Z,4.10
2019-04-01T13:56:00.727Z,4.37
2019-04-01T13:57:05.822Z,3.70
2019-04-01T13:58:11.048Z,4.43
2019-04-01T13:59:17.627Z,4.10
2019-04-01T14:00:27.015Z,4.60
2019-04-01T14:01:30.118Z,4.47
2019-04-01T14:02:35.292Z,3.80
2019-04-01T14:03:40.436Z,4.60
2019-04-01T14:04:45.573Z,3.90
2019-04-01T14:05:50.657Z,3.83
2019-04-01T14:06:55.721Z,4.07
2019-04-01T14:08:00.788Z,4.30
2019-04-01T14:09:07.822Z,3.80
2019-04-01T14:10:13.174Z,4.43
2019-04-01T14:11:18.261Z,3.90
2019-04-01T14:12:23.499Z,4.27
2019-04-01T14:13:28.585Z,4.13
2019-04-01T14:14:33.756Z,4.03
2019-04-01T14:15:38.991Z,3.87
2019-04-01T14:16:44.139Z,3.90
2019-04-01T14:17:49.205Z,4.53
2019-04-01T14:18:54.348Z,4.00
2019-04-01T14:19:59.755Z,4.50
2019-04-01T14:21:16.263Z,3.97
2019-04-01T14:22:11.619Z,4.30
2019-04-01T14:23:18.175Z,4.50
2019-04-01T14:24:24.544Z,4.90
2019-04-01T14:25:29.736Z,4.67
2019-04-01T14:26:34.912Z,4.23
2019-04-01T14:27:40.181Z,3.87
2019-04-01T14:28:45.350Z,4.67
2019-04-01T14:29:50.611Z,3.90
2019-04-01T14:30:56.641Z,4.37
2019-04-01T14:32:01.682Z,4.13
2019-04-01T14:33:06.869Z,4.03
2019-04-01T14:34:22.829Z,4.30
2019-04-01T14:35:23.628Z,3.93
2019-04-01T14:36:28.248Z,3.97
2019-04-01T14:37:33.496Z,3.63
2019-04-01T14:38:38.669Z,4.20
2019-04-01T14:39:43.922Z,4.17
2019-04-01T14:40:49.131Z,4.30
2019-04-01T14:41:54.278Z,4.00
2019-04-01T14:42:59.437Z,4.17
2019-04-01T14:44:04.551Z,4.10
2019-04-01T14:45:11.490Z,4.10
2019-04-01T14:46:16.617Z,4.03
2019-04-01T14:47:22.165Z,4.47
2019-04-01T14:48:27.362Z,3.60
2019-04-01T14:49:33.106Z,3.30
2019-04-01T14:50:38.438Z,3.97
2019-04-01T14:51:43.629Z,4.20
2019-04-01T14:52:49.515Z,3.90
2019-04-01T14:53:54.760Z,3.60
2019-04-01T14:54:59.898Z,4.17
2019-04-01T14:56:05.147Z,4.20
2019-04-01T14:57:10.329Z,3.73
2019-04-01T14:58:15.593Z,3.93
2019-04-01T14:59:20.787Z,3.77
2019-04-01T15:00:25.971Z,3.87
2019-04-01T15:01:31.162Z,4.07
2019-04-01T15:02:36.322Z,4.10
2019-04-01T15:03:42.011Z,4.40
2019-04-01T15:04:47.192Z,3.80
2019-04-01T15:05:52.366Z,4.20
2019-04-01T15:06:57.512Z,3.77
2019-04-01T15:08:02.677Z,3.73
2019-04-01T15:09:09.163Z,4.10
2019-04-01T15:10:16.311Z,3.73
2019-04-01T15:11:22.120Z,3.87
2019-04-01T15:12:27.330Z,3.63
2019-04-01T15:13:32.441Z,4.67
2019-04-01T15:14:37.553Z,4.47
2019-04-01T15:15:42.691Z,4.20
2019-04-01T15:16:48.326Z,4.50
2019-04-01T15:17:53.475Z,4.27
2019-04-01T15:18:58.689Z,4.13
2019-04-01T15:20:09.011Z,3.87
2019-04-01T15:21:16.096Z,4.50
2019-04-01T15:22:22.725Z,4.63
2019-04-01T15:23:27.977Z,4.20
2019-04-01T15:24:33.099Z,4.30
2019-04-01T15:25:38.198Z,4.30
2019-04-01T15:26:43.462Z,4.23
2019-04-01T15:27:48.548Z,3.80
2019-04-01T15:28:53.664Z,4.50
2019-04-01T15:29:58.823Z,4.70
2019-04-01T15:31:04.037Z,4.77
2019-04-01T15:32:09.304Z,4.07
2019-04-01T15:33:14.439Z,4.87
2019-04-01T15:34:19.609Z,4.33
2019-04-01T15:35:25.885Z,4.40
2019-04-01T15:36:30.935Z,4.67
2019-04-01T15:37:36.111Z,3.90
2019-04-01T15:38:41.133Z,4.40
2019-04-01T15:39:47.453Z,4.27
2019-04-01T15:40:53.122Z,3.90
2019-04-01T15:41:58.255Z,4.10
2019-04-01T15:43:03.342Z,3.97
2019-04-01T15:44:09.275Z,4.40
2019-04-01T15:45:14.603Z,4.10
2019-04-01T15:46:19.703Z,3.80
2019-04-01T15:47:24.799Z,4.30
2019-04-01T15:48:29.893Z,4.27
2019-04-01T15:49:35.079Z,3.97
2019-04-01T15:50:40.211Z,4.47
2019-04-01T15:51:45.906Z,4.30
2019-04-01T15:52:51.044Z,3.90
2019-04-01T15:53:56.187Z,4.17
2019-04-01T15:55:02.471Z,4.50
2019-04-01T15:56:07.875Z,4.40
2019-04-01T15:57:15.193Z,4.20
2019-04-01T15:58:19.731Z,3.67
2019-04-01T15:59:24.885Z,4.13
2019-04-01T16:00:30.078Z,4.10
2019-04-01T16:01:35.181Z,4.23
2019-04-01T16:02:40.275Z,4.03